createdAt,value
2019-05-31T00:01:46.210Z,18.73
2019-05-31T00:04:14.749Z,19.90
2019-05-31T00:06:45.895Z,19.43
2019-05-31T00:09:14.588Z,18.77
2019-05-31T00:11:42.586Z,21.67
2019-05-31T00:14:20.299Z,20.67
2019-05-31T00:16:45.611Z,20.50
2019-05-31T00:19:13.970Z,21.80
2019-05-31T00:21:47.124Z,21.33
2019-05-31T00:24:15.570Z,20.60
2019-05-31T00:26:45.174Z,21.37
2019-05-31T00:29:16.282Z,19.83
2019-05-31T00:31:47.907Z,21.43
2019-05-31T00:34:15.371Z,20.80
2019-05-31T00:36:42.734Z,20.17
2019-05-31T00:39:09.451Z,20.90
2019-05-31T00:41:39.340Z,20.43
2019-05-31T00:44:06.101Z,21.60
2019-05-31T00:46:32.767Z,21.73
2019-05-31T00:48:59.691Z,21.03
2019-05-31T00:51:31.247Z,22.27
2019-05-31T00:53:58.155Z,21.20
2019-05-31T00:56:25.575Z,22.10
2019-05-31T00:58:52.608Z,21.67
2019-05-31T01:01:19.273Z,22.80
2019-05-31T01:03:48.132Z,22.70
2019-05-31T01:06:15.207Z,20.53
2019-05-31T01:08:42.926Z,22.23
2019-05-31T01:11:11.629Z,22.60
2019-05-31T01:13:38.567Z,21.90
2019-05-31T01:16:08.985Z,20.00
2019-05-31T01:18:46.284Z,20.10
2019-05-31T01:21:15.412Z,20.57
2019-05-31T01:23:43.103Z,20.53
2019-05-31T01:26:09.724Z,19.57
2019-05-31T01:28:38.067Z,20.00
2019-05-31T01:31:08.268Z,21.43
2019-05-31T01:33:36.023Z,18.30
2019-05-31T01:36:02.662Z,17.93
2019-05-31T01:38:30.651Z,19.10
2019-05-31T01:41:00.622Z,19.73
2019-05-31T01:43:27.732Z,21.67
2019-05-31T01:45:54.379Z,19.40
2019-05-31T01:48:21.449Z,21.37
2019-05-31T01:50:49.446Z,21.10
2019-05-31T01:53:16.680Z,20.40
2019-05-31T01:55:43.788Z,21.13
2019-05-31T01:58:13.819Z,21.40
2019-05-31T02:00:42.513Z,21.30
2019-05-31T02:03:10.643Z,21.13
2019-05-31T02:05:38.248Z,19.73
2019-05-31T02:08:06.592Z,22.07
2019-05-31T02:10:33.354Z,22.97
2019-05-31T02:13:01.181Z,23.77
2019-05-31T02:15:32.585Z,22.27
2019-05-31T02:18:04.401Z,21.80
2019-05-31T02:20:33.707Z,21.80
2019-05-31T02:23:10.027Z,21.60
2019-05-31T02:25:36.719Z,21.07
2019-05-31T02:28:03.354Z,22.63
2019-05-31T02:30:30.085Z,20.67
2019-05-31T02:33:00.764Z,22.80
2019-05-31T02:35:28.161Z,22.77
2019-05-31T02:37:57.464Z,21.40
2019-05-31T02:40:27.825Z,22.27
2019-05-31T02:42:58.447Z,22.03
2019-05-31T02:45:45.558Z,24.13
2019-05-31T02:47:58.171Z,23.20
2019-05-31T02:50:32.268Z,23.40
2019-05-31T02:52:59.312Z,23.07
2019-05-31T02:55:31.096Z,25.07
2019-05-31T02:57:58.831Z,24.17
2019-05-31T03:00:28.689Z,22.80
2019-05-31T03:02:56.029Z,22.80
2019-05-31T03:05:23.460Z,23.30
2019-05-31T03:07:52.023Z,24.77
2019-05-31T03:10:20.867Z,21.57
2019-05-31T03:12:47.629Z,22.70
2019-05-31T03:15:18.065Z,24.03
2019-05-31T03:17:44.712Z,24.70
2019-05-31T03:20:13.666Z,24.40
2019-05-31T03:22:41.029Z,22.50
2019-05-31T03:25:08.932Z,24.53
2019-05-31T03:27:36.588Z,26.40
2019-05-31T03:30:04.813Z,24.53
2019-05-31T03:32:39.276Z,25.53
2019-05-31T03:35:08.456Z,24.07
2019-05-31T03:37:35.666Z,25.50
2019-05-31T03:40:02.812Z,28.77
2019-05-31T03:42:30.695Z,26.00
2019-05-31T03:44:59.149Z,26.87
2019-05-31T03:47:27.132Z,24.17
2019-05-31T03:49:56.241Z,27.03
2019-05-31T03:52:23.475Z,27.23
2019-05-31T03:54:51.308Z,24.23
2019-05-31T03:57:19.723Z,27.03
2019-05-31T03:59:47.896Z,24.87
2019-05-31T04:02:15.733Z,23.90
2019-05-31T04:04:45.622Z,26.43
2019-05-31T04:07:12.267Z,24.50
2019-05-31T04:09:39.392Z,26.70
2019-05-31T04:12:06.208Z,25.53
2019-05-31T04:14:32.873Z,28.73
2019-05-31T04:16:59.502Z,26.13
2019-05-31T04:19:26.250Z,26.03
2019-05-31T04:21:52.969Z,25.67
2019-05-31T04:24:20.421Z,26.67
2019-05-31T04:26:49.316Z,24.97
2019-05-31T04:29:17.674Z,26.07
2019-05-31T04:31:44.552Z,28.30
2019-05-31T04:34:15.810Z,24.67
2019-05-31T04:36:43.513Z,27.60
2019-05-31T04:39:11.173Z,28.20
2019-05-31T04:41:39.648Z,28.73
2019-05-31T04:44:08.461Z,28.07
2019-05-31T04:46:38.266Z,27.07
2019-05-31T04:49:07.480Z,27.37
2019-05-31T04:51:34.692Z,26.80
2019-05-31T04:54:09.902Z,28.83
2019-05-31T04:56:37.939Z,27.10
2019-05-31T04:59:04.670Z,25.10
2019-05-31T05:01:31.848Z,24.20
2019-05-31T05:04:04.343Z,25.43
2019-05-31T05:06:31.751Z,26.13
2019-05-31T05:08:58.551Z,25.97
2019-05-31T05:11:30.668Z,26.43
2019-05-31T05:13:58.306Z,25.93
2019-05-31T05:16:26.835Z,24.97
2019-05-31T05:18:53.879Z,27.30
2019-05-31T05:21:22.655Z,25.60
2019-05-31T05:23:51.221Z,26.30
2019-05-31T05:26:21.020Z,25.77
2019-05-31T05:28:47.735Z,24.77
2019-05-31T05:31:23.800Z,24.23
2019-05-31T05:33:50.685Z,22.40
2019-05-31T05:36:20.212Z,27.30
2019-05-31T05:38:50.707Z,24.83
2019-05-31T05:41:24.450Z,22.43
2019-05-31T05:43:51.171Z,22.97
2019-05-31T05:46:19.211Z,22.77
2019-05-31T05:48:47.492Z,21.33
2019-05-31T05:51:15.599Z,21.90
2019-05-31T05:53:42.600Z,21.80
2019-05-31T05:56:10.376Z,21.60
2019-05-31T05:58:37.417Z,20.50
2019-05-31T06:01:04.712Z,21.03
2019-05-31T06:03:34.624Z,20.87
2019-05-31T06:06:04.632Z,18.27
2019-05-31T06:08:35.858Z,17.77
2019-05-31T06:11:03.203Z,20.93
2019-05-31T06:13:32.212Z,20.97
2019-05-31T06:16:04.987Z,19.50
2019-05-31T06:18:33.803Z,17.67
2019-05-31T06:21:02.601Z,16.67
2019-05-31T06:23:32.636Z,16.73
2019-05-31T06:25:59.709Z,18.90
2019-05-31T06:28:26.865Z,20.03
2019-05-31T06:30:54.139Z,20.03
2019-05-31T06:33:20.820Z,18.60
2019-05-31T06:35:51.665Z,18.77
2019-05-31T06:38:19.404Z,20.40
2019-05-31T06:40:47.957Z,20.07
2019-05-31T06:43:16.015Z,21.27
2019-05-31T06:45:43.952Z,20.63
2019-05-31T06:48:19.439Z,21.43
2019-05-31T06:50:39.815Z,20.57
2019-05-31T06:53:06.523Z,19.87
2019-05-31T06:55:33.542Z,21.10
2019-05-31T06:58:00.760Z,20.30
2019-05-31T07:00:29.732Z,22.20
2019-05-31T07:02:56.766Z,22.53
2019-05-31T07:05:23.735Z,21.63
2019-05-31T07:07:51.413Z,22.50
2019-05-31T07:10:20.165Z,20.17
2019-05-31T07:12:48.257Z,22.17
2019-05-31T07:15:15.712Z,20.70
2019-05-31T07:17:54.735Z,21.50
2019-05-31T07:20:13.376Z,19.10
2019-05-31T07:22:40.429Z,19.20
2019-05-31T07:25:09.541Z,19.30
2019-05-31T07:27:39.354Z,18.67
2019-05-31T07:30:07.723Z,18.57
2019-05-31T07:32:35.698Z,17.40
2019-05-31T07:35:03.168Z,18.30
2019-05-31T07:37:35.399Z,18.47
2019-05-31T07:40:01.231Z,17.93
2019-05-31T07:42:29.104Z,15.53
2019-05-31T07:44:55.870Z,16.60
2019-05-31T07:47:23.509Z,14.97
2019-05-31T07:49:50.583Z,15.00
2019-05-31T07:52:24.626Z,14.80
2019-05-31T07:54:47.236Z,14.23
2019-05-31T07:57:15.274Z,14.60
2019-05-31T07:59:44.067Z,15.33
2019-05-31T08:02:11.489Z,13.33
2019-05-31T08:04:39.115Z,14.40
2019-05-31T08:07:05.763Z,14.73
2019-05-31T08:09:33.657Z,13.33
2019-05-31T08:12:01.003Z,13.60
2019-05-31T08:14:29.187Z,12.43
2019-05-31T08:16:59.036Z,12.63
2019-05-31T08:19:27.978Z,12.70
2019-05-31T08:21:55.056Z,11.53
2019-05-31T08:24:21.804Z,12.00
2019-05-31T08:26:48.576Z,11.40
2019-05-31T08:29:16.520Z,11.57
2019-05-31T08:31:45.871Z,11.53
2019-05-31T08:34:11.860Z,10.67
2019-05-31T08:36:38.804Z,9.90
2019-05-31T08:39:06.245Z,11.40
2019-05-31T08:41:34.412Z,11.90
2019-05-31T08:44:01.756Z,12.23
2019-05-31T08:46:29.015Z,11.20
2019-05-31T08:48:55.825Z,11.40
2019-05-31T08:51:22.569Z,12.23
2019-05-31T08:53:49.346Z,12.90
2019-05-31T08:56:15.979Z,13.20
2019-05-31T08:58:42.964Z,14.10
2019-05-31T09:01:11.001Z,16.77
2019-05-31T09:03:42.940Z,17.20
2019-05-31T09:06:07.516Z,15.07
2019-05-31T09:08:34.644Z,16.30
2019-05-31T09:11:01.316Z,16.33
2019-05-31T09:13:29.979Z,17.63
2019-05-31T09:16:00.421Z,17.77
2019-05-31T09:18:27.078Z,17.73
2019-05-31T09:20:53.823Z,17.10
2019-05-31T09:23:20.585Z,19.17
2019-05-31T09:25:47.234Z,18.70
2019-05-31T09:28:14.663Z,19.43
2019-05-31T09:30:42.720Z,17.27
2019-05-31T09:33:09.594Z,16.17
2019-05-31T09:35:36.354Z,15.80
2019-05-31T09:38:04.358Z,14.90
2019-05-31T09:40:32.096Z,15.27
2019-05-31T09:43:00.229Z,14.43
2019-05-31T09:45:28.051Z,15.63
2019-05-31T09:47:55.744Z,13.50
2019-05-31T09:50:23.387Z,13.73
2019-05-31T09:52:50.587Z,13.53
2019-05-31T09:55:17.329Z,14.23
2019-05-31T09:57:48.263Z,12.90
2019-05-31T10:00:15.209Z,12.33
2019-05-31T10:02:42.611Z,11.90
2019-05-31T10:05:10.915Z,12.00
2019-05-31T10:07:38.330Z,10.67
2019-05-31T10:10:05.507Z,10.63
2019-05-31T10:12:32.863Z,11.47
2019-05-31T10:15:01.554Z,11.83
2019-05-31T10:17:30.027Z,11.00
2019-05-31T10:19:57.285Z,12.07
2019-05-31T10:22:24.488Z,10.83
2019-05-31T10:24:51.390Z,10.40
2019-05-31T10:27:18.028Z,9.97
2019-05-31T10:29:44.788Z,11.13
2019-05-31T10:32:21.360Z,11.00
2019-05-31T10:34:42.475Z,9.50
2019-05-31T10:37:09.442Z,10.60
2019-05-31T10:39:37.193Z,11.43
2019-05-31T10:42:19.001Z,11.03
2019-05-31T10:44:36.059Z,10.50
2019-05-31T10:47:04.166Z,9.73
2019-05-31T10:49:30.831Z,11.07
2019-05-31T10:51:57.873Z,11.90
2019-05-31T10:54:24.520Z,11.40
2019-05-31T10:56:51.415Z,10.03
2019-05-31T10:59:18.180Z,11.83
2019-05-31T11:01:46.731Z,10.37
2019-05-31T11:04:13.398Z,10.43
2019-05-31T11:06:40.979Z,11.13
2019-05-31T11:09:07.845Z,10.07
2019-05-31T11:11:37.315Z,11.73
2019-05-31T11:14:03.672Z,12.40
2019-05-31T11:16:30.708Z,10.70
2019-05-31T11:18:57.679Z,10.50
2019-05-31T11:21:25.558Z,11.33
2019-05-31T11:23:52.504Z,10.40
2019-05-31T11:26:20.236Z,10.30
2019-05-31T11:28:46.892Z,9.77
2019-05-31T11:31:13.868Z,10.93
2019-05-31T11:33:45.102Z,11.90
2019-05-31T11:36:09.725Z,11.80
2019-05-31T11:38:38.241Z,11.87
2019-05-31T11:41:06.162Z,11.60
2019-05-31T11:43:34.824Z,10.70
2019-05-31T11:46:01.479Z,10.83
2019-05-31T11:48:28.187Z,10.77
2019-05-31T11:51:01.045Z,10.33
2019-05-31T11:53:28.751Z,10.00
2019-05-31T11:55:56.497Z,9.07
2019-05-31T11:58:23.265Z,9.03
2019-05-31T12:00:50.721Z,9.33
2019-05-31T12:03:17.744Z,10.80
2019-05-31T12:05:46.200Z,9.87
2019-05-31T12:08:13.371Z,9.40
2019-05-31T12:10:42.686Z,11.33
2019-05-31T12:13:10.647Z,11.30
2019-05-31T12:15:38.985Z,10.83
2019-05-31T12:18:05.939Z,9.60
2019-05-31T12:20:32.612Z,10.80
2019-05-31T12:23:00.676Z,10.40
2019-05-31T12:25:28.623Z,9.50
2019-05-31T12:27:58.699Z,8.97
2019-05-31T12:30:25.842Z,9.27
2019-05-31T12:32:53.358Z,11.77
2019-05-31T12:35:22.082Z,9.90
2019-05-31T12:37:51.078Z,10.17
2019-05-31T12:40:17.987Z,9.20
2019-05-31T12:42:46.932Z,8.90
2019-05-31T12:45:15.394Z,8.57
2019-05-31T12:47:46.586Z,8.97
2019-05-31T12:50:12.770Z,9.83
2019-05-31T12:52:47.424Z,8.27
2019-05-31T12:55:14.783Z,7.13
2019-05-31T12:57:43.132Z,6.80
2019-05-31T13:00:10.676Z,7.50
2019-05-31T13:02:37.334Z,7.80
2019-05-31T13:05:05.817Z,7.07
2019-05-31T13:07:32.815Z,7.23
2019-05-31T13:09:59.834Z,7.17
2019-05-31T13:12:26.967Z,7.53
2019-05-31T13:14:54.367Z,7.77
2019-05-31T13:17:21.031Z,7.27
2019-05-31T13:19:49.724Z,7.13
2019-05-31T13:22:22.755Z,5.87
2019-05-31T13:24:46.411Z,6.13
2019-05-31T13:27:13.068Z,5.80
2019-05-31T13:29:40.151Z,7.13
2019-05-31T13:32:06.827Z,6.43
2019-05-31T13:34:33.592Z,6.20
2019-05-31T13:37:02.583Z,5.93
2019-05-31T13:39:31.815Z,5.50
2019-05-31T13:41:58.824Z,5.87
2019-05-31T13:44:27.315Z,5.27
2019-05-31T13:46:54.515Z,6.53
2019-05-31T13:49:21.469Z,5.40
2019-05-31T13:51:52.594Z,4.57
2019-05-31T13:54:19.986Z,4.90
2019-05-31T13:56:46.856Z,5.90
2019-05-31T13:59:14.023Z,5.60
2019-05-31T14:01:42.022Z,5.60
2019-05-31T14:04:08.676Z,6.63
2019-05-31T14:06:35.735Z,5.87
2019-05-31T14:09:05.349Z,5.50
2019-05-31T14:11:32.111Z,6.37
2019-05-31T14:14:01.524Z,5.50
2019-05-31T14:16:28.284Z,6.20
2019-05-31T14:18:54.964Z,5.50
2019-05-31T14:21:22.357Z,6.10
2019-05-31T14:23:49.357Z,5.87
2019-05-31T14:26:17.823Z,4.83
2019-05-31T14:28:46.109Z,4.53
2019-05-31T14:31:13.260Z,5.07
2019-05-31T14:33:40.569Z,4.93
2019-05-31T14:36:07.815Z,5.03
2019-05-31T14:38:36.600Z,4.87
2019-05-31T14:41:03.387Z,5.03
2019-05-31T14:43:31.112Z,5.83
2019-05-31T14:45:58.769Z,6.00
2019-05-31T14:48:25.876Z,6.67
2019-05-31T14:50:56.047Z,6.50
2019-05-31T14:53:24.758Z,7.00
2019-05-31T14:55:53.470Z,6.90
2019-05-31T14:58:22.244Z,7.60
2019-05-31T15:00:49.141Z,6.50
2019-05-31T15:03:15.833Z,7.60
2019-05-31T15:05:42.684Z,5.77
2019-05-31T15:08:09.358Z,6.93
2019-05-31T15:10:37.155Z,8.13
2019-05-31T15:13:21.388Z,6.30
2019-05-31T15:15:34.172Z,7.73
2019-05-31T15:18:00.915Z,6.27
2019-05-31T15:20:27.923Z,6.57
2019-05-31T15:22:54.744Z,6.53
2019-05-31T15:25:21.783Z,7.50
2019-05-31T15:27:48.725Z,7.33
2019-05-31T15:30:26.836Z,8.23
2019-05-31T15:33:02.230Z,8.03
2019-05-31T15:35:55.498Z,7.90
2019-05-31T15:38:22.871Z,7.30
2019-05-31T15:40:51.919Z,7.53
2019-05-31T15:43:20.037Z,7.03
2019-05-31T15:45:46.675Z,6.53
2019-05-31T15:48:14.403Z,6.70
2019-05-31T15:50:42.144Z,5.80
2019-05-31T15:53:30.401Z,6.30
2019-05-31T15:55:50.148Z,7.77
2019-05-31T15:58:12.075Z,7.03
2019-05-31T16:00:40.868Z,6.13
2019-05-31T16:03:09.522Z,7.00
2019-05-31T16:05:37.411Z,6.67
2019-05-31T16:08:04.637Z,7.77
2019-05-31T16:10:31.425Z,8.37
2019-05-31T16:12:58.724Z,6.90
2019-05-31T16:15:26.331Z,7.43
2019-05-31T16:17:53.340Z,8.43
2019-05-31T16:20:21.807Z,8.40
2019-05-31T16:22:49.199Z,7.93
2019-05-31T16:25:15.939Z,7.50
2019-05-31T16:27:43.019Z,7.33
2019-05-31T16:30:10.329Z,7.27
2019-05-31T16:32:38.298Z,8.00
2019-05-31T16:35:06.335Z,9.10
2019-05-31T16:37:37.344Z,8.90
2019-05-31T16:40:06.892Z,9.03
2019-05-31T16:42:35.083Z,8.20
2019-05-31T16:45:08.565Z,7.80
2019-05-31T16:47:30.685Z,8.80
2019-05-31T16:49:57.848Z,9.37
2019-05-31T16:52:24.972Z,8.13
2019-05-31T16:54:51.611Z,8.13
2019-05-31T16:57:18.399Z,7.93
2019-05-31T16:59:45.040Z,7.80
2019-05-31T17:02:12.353Z,8.80
2019-05-31T17:04:39.285Z,8.07
2019-05-31T17:07:07.833Z,9.03
2019-05-31T17:09:36.020Z,8.07
2019-05-31T17:12:03.443Z,9.10
2019-05-31T17:14:31.932Z,8.43
2019-05-31T17:16:58.964Z,6.97
2019-05-31T17:19:26.322Z,7.50
2019-05-31T17:21:54.084Z,7.00
2019-05-31T17:24:23.998Z,7.90
2019-05-31T17:26:50.036Z,6.80
2019-05-31T17:29:17.375Z,7.37
2019-05-31T17:31:44.332Z,6.20
2019-05-31T17:34:11.678Z,6.70
2019-05-31T17:36:39.898Z,7.67
2019-05-31T17:39:09.743Z,7.40
2019-05-31T17:41:37.151Z,7.70
2019-05-31T17:44:04.265Z,7.73
2019-05-31T17:46:31.056Z,6.27
2019-05-31T17:48:58.571Z,6.63
2019-05-31T17:51:25.521Z,8.03
2019-05-31T17:53:52.560Z,8.10
2019-05-31T17:56:21.040Z,8.23
2019-05-31T17:58:47.684Z,7.97
2019-05-31T18:01:15.380Z,8.70
2019-05-31T18:03:43.149Z,7.37
2019-05-31T18:06:11.504Z,8.80
2019-05-31T18:08:38.405Z,8.50
2019-05-31T18:11:06.083Z,8.20
2019-05-31T18:13:33.763Z,7.90
2019-05-31T18:16:01.489Z,9.13
2019-05-31T18:18:29.480Z,8.27
2019-05-31T18:21:01.398Z,9.00
2019-05-31T18:23:26.096Z,8.37
2019-05-31T18:25:53.760Z,8.50
2019-05-31T18:28:20.880Z,9.33
2019-05-31T18:30:47.955Z,7.67
2019-05-31T18:33:15.441Z,7.80
2019-05-31T18:35:44.803Z,9.07
2019-05-31T18:38:12.009Z,9.17
2019-05-31T18:40:38.861Z,8.50
2019-05-31T18:43:05.516Z,9.23
2019-05-31T18:45:32.476Z,8.67
2019-05-31T18:47:59.316Z,10.57
2019-05-31T18:50:25.998Z,9.43
2019-05-31T18:52:53.183Z,9.70
2019-05-31T18:55:37.391Z,11.13
2019-05-31T18:57:48.403Z,10.77
2019-05-31T19:00:17.120Z,10.80
2019-05-31T19:02:44.554Z,9.37
2019-05-31T19:05:11.287Z,10.87
2019-05-31T19:07:39.735Z,10.40
2019-05-31T19:10:06.571Z,10.50
2019-05-31T19:12:33.583Z,10.40
2019-05-31T19:15:00.583Z,10.67
2019-05-31T19:17:27.335Z,10.23
2019-05-31T19:19:53.980Z,9.40
2019-05-31T19:22:21.623Z,10.73
2019-05-31T19:24:50.206Z,11.07
2019-05-31T19:27:18.859Z,10.87
2019-05-31T19:29:47.800Z,11.17
2019-05-31T19:32:19.863Z,10.03
2019-05-31T19:34:47.523Z,10.67
2019-05-31T19:37:16.148Z,10.70
2019-05-31T19:39:43.870Z,10.93
2019-05-31T19:42:14.186Z,10.70
2019-05-31T19:44:42.777Z,12.03
2019-05-31T19:47:10.637Z,11.90
2019-05-31T19:49:37.488Z,11.63
2019-05-31T19:52:06.060Z,12.47
2019-05-31T19:54:33.528Z,11.30
2019-05-31T19:57:01.383Z,12.20
2019-05-31T19:59:28.184Z,12.67
2019-05-31T20:01:55.998Z,11.57
2019-05-31T20:04:24.467Z,12.17
2019-05-31T20:06:53.013Z,11.33
2019-05-31T20:09:21.007Z,12.67
2019-05-31T20:11:50.435Z,12.40
2019-05-31T20:14:19.981Z,12.90
2019-05-31T20:16:46.677Z,13.87
2019-05-31T20:19:13.343Z,12.50
2019-05-31T20:21:41.210Z,13.13
2019-05-31T20:24:11.644Z,14.10
2019-05-31T20:26:40.010Z,13.27
2019-05-31T20:29:07.971Z,13.80
2019-05-31T20:31:39.705Z,14.17
2019-05-31T20:34:06.747Z,13.63
2019-05-31T20:36:34.431Z,12.10
2019-05-31T20:39:01.769Z,12.90
2019-05-31T20:41:41.519Z,12.50
2019-05-31T20:43:59.335Z,13.77
2019-05-31T20:46:26.889Z,14.60
2019-05-31T20:48:56.284Z,13.67
2019-05-31T20:51:23.478Z,12.80
2019-05-31T20:53:50.113Z,13.73
2019-05-31T20:56:16.983Z,14.27
2019-05-31T20:58:44.180Z,14.57
2019-05-31T21:01:12.044Z,14.43
2019-05-31T21:03:38.806Z,14.73
2019-05-31T21:06:05.460Z,14.03
2019-05-31T21:08:33.916Z,14.27
2019-05-31T21:11:01.600Z,13.00
2019-05-31T21:13:28.246Z,12.60
2019-05-31T21:15:54.903Z,14.07
2019-05-31T21:18:22.301Z,13.00
2019-05-31T21:20:49.207Z,14.70
2019-05-31T21:23:17.157Z,12.53
2019-05-31T21:25:47.336Z,12.03
2019-05-31T21:28:13.993Z,12.00
2019-05-31T21:30:40.624Z,11.10
2019-05-31T21:33:07.284Z,12.53
2019-05-31T21:35:34.223Z,13.30
2019-05-31T21:38:01.277Z,12.60
2019-05-31T21:40:29.064Z,10.63
2019-05-31T21:42:57.029Z,12.00
2019-05-31T21:45:23.749Z,10.97
2019-05-31T21:47:51.054Z,11.70
2019-05-31T21:50:18.479Z,11.33
2019-05-31T21:52:45.465Z,11.60
2019-05-31T21:55:13.156Z,11.60
2019-05-31T21:57:41.031Z,11.23
2019-05-31T22:00:10.835Z,13.07
2019-05-31T22:02:39.715Z,11.07
2019-05-31T22:05:07.456Z,11.50
2019-05-31T22:07:34.964Z,11.67
2019-05-31T22:10:02.071Z,10.33
2019-05-31T22:12:29.319Z,9.30
2019-05-31T22:14:55.972Z,9.00
2019-05-31T22:17:23.211Z,8.83
2019-05-31T22:19:50.152Z,9.70
2019-05-31T22:22:20.388Z,9.50
2019-05-31T22:24:47.043Z,8.60
2019-05-31T22:27:13.783Z,9.70
2019-05-31T22:29:40.711Z,10.80
2019-05-31T22:32:11.888Z,10.03
2019-05-31T22:34:40.144Z,9.07
2019-05-31T22:37:06.895Z,9.73
2019-05-31T22:39:34.581Z,9.03
2019-05-31T22:42:01.398Z,9.00
2019-05-31T22:44:28.026Z,8.50
2019-05-31T22:46:54.771Z,8.90
2019-05-31T22:49:21.427Z,9.10
2019-05-31T22:51:48.064Z,8.73
2019-05-31T22:54:15.094Z,9.93
2019-05-31T22:56:46.766Z,9.33
2019-05-31T22:59:13.471Z,8.67
2019-05-31T23:01:40.495Z,9.57
2019-05-31T23:04:07.374Z,8.87
2019-05-31T23:06:35.008Z,9.17
2019-05-31T23:09:03.379Z,9.60
2019-05-31T23:11:31.174Z,9.60
2019-05-31T23:13:57.903Z,9.20
2019-05-31T23:16:25.976Z,9.20
2019-05-31T23:18:54.048Z,10.20
2019-05-31T23:21:22.495Z,9.70
2019-05-31T23:23:49.452Z,9.53
2019-05-31T23:26:16.119Z,9.33
2019-05-31T23:28:43.919Z,9.90
2019-05-31T23:31:10.827Z,9.70
2019-05-31T23:33:38.021Z,8.60
2019-05-31T23:36:05.983Z,9.90
2019-05-31T23:38:32.624Z,9.13
2019-05-31T23:40:59.272Z,9.33
2019-05-31T23:43:25.919Z,10.10
2019-05-31T23:45:52.906Z,9.60
2019-05-31T23:48:19.547Z,9.97
2019-05-31T23:50:47.509Z,9.50
2019-05-31T23:53:15.572Z,9.40
2019-05-31T23:55:43.521Z,10.53
2019-05-31T23:58:12.104Z,10.00
